sensor_id;sensor_type;location;lat;lon;timestamp;P1;durP1;ratioP1;P2;durP2;ratioP2
22622;SDS011;11478;51.094;7.030;2023-03-01T00:01:37;20.88;;;10.75;;
22622;SDS011;11478;51.094;7.030;2023-03-01T00:04:03;16.70;;;11.13;;
22622;SDS011;11478;51.094;7.030;2023-03-01T00:06:37;18.25;;;11.35;;
22622;SDS011;11478;51.094;7.030;2023-03-01T00:09:03;17.45;;;11.13;;
22622;SDS011;11478;51.094;7.030;2023-03-01T00:11:30;18.33;;;11.30;;
22622;SDS011;11478;51.094;7.030;2023-03-01T00:14:01;16.02;;;10.95;;
22622;SDS011;11478;51.094;7.030;2023-03-01T00:16:31;16.75;;;11.38;;
22622;SDS011;11478;51.094;7.030;2023-03-01T00:19:01;18.42;;;11.80;;
22622;SDS011;11478;51.094;7.030;2023-03-01T00:21:28;16.85;;;11.68;;
22622;SDS011;11478;51.094;7.030;2023-03-01T00:23:56;15.00;;;11.00;;
22622;SDS011;11478;51.094;7.030;2023-03-01T00:26:24;14.98;;;10.23;;
22622;SDS011;11478;51.094;7.030;2023-03-01T00:31:22;14.82;;;10.93;;
22622;SDS011;11478;51.094;7.030;2023-03-01T00:40:35;16.90;;;10.40;;
22622;SDS011;11478;51.094;7.030;2023-03-01T00:43:02;16.08;;;11.15;;
22622;SDS011;11478;51.094;7.030;2023-03-01T00:45:33;17.55;;;11.20;;
22622;SDS011;11478;51.094;7.030;2023-03-01T00:47:58;16.33;;;10.85;;
22622;SDS011;11478;51.094;7.030;2023-03-01T00:50:29;14.43;;;10.35;;
22622;SDS011;11478;51.094;7.030;2023-03-01T00:52:55;16.63;;;10.60;;
22622;SDS011;11478;51.094;7.030;2023-03-01T00:55:34;14.98;;;9.85;;
22622;SDS011;11478;51.094;7.030;2023-03-01T00:58:01;15.77;;;11.07;;
22622;SDS011;11478;51.094;7.030;2023-03-01T01:00:27;18.02;;;12.20;;
22622;SDS011;11478;51.094;7.030;2023-03-01T01:02:53;15.52;;;11.02;;
22622;SDS011;11478;51.094;7.030;2023-03-01T01:05:19;18.38;;;11.80;;
22622;SDS011;11478;51.094;7.030;2023-03-01T01:07:46;15.18;;;10.40;;
22622;SDS011;11478;51.094;7.030;2023-03-01T01:10:22;17.08;;;10.73;;
22622;SDS011;11478;51.094;7.030;2023-03-01T01:12:48;18.13;;;11.55;;
22622;SDS011;11478;51.094;7.030;2023-03-01T01:15:16;17.23;;;11.75;;
22622;SDS011;11478;51.094;7.030;2023-03-01T01:17:42;18.92;;;11.45;;
22622;SDS011;11478;51.094;7.030;2023-03-01T01:20:16;17.33;;;11.35;;
22622;SDS011;11478;51.094;7.030;2023-03-01T01:22:42;17.50;;;11.25;;
22622;SDS011;11478;51.094;7.030;2023-03-01T01:25:09;16.63;;;11.13;;
22622;SDS011;11478;51.094;7.030;2023-03-01T01:27:36;17.40;;;10.50;;
22622;SDS011;11478;51.094;7.030;2023-03-01T01:30:12;17.75;;;11.00;;
22622;SDS011;11478;51.094;7.030;2023-03-01T01:32:38;17.77;;;11.13;;
22622;SDS011;11478;51.094;7.030;2023-03-01T01:37:45;18.70;;;11.02;;
22622;SDS011;11478;51.094;7.030;2023-03-01T01:43:34;16.52;;;10.68;;
22622;SDS011;11478;51.094;7.030;2023-03-01T01:52:18;18.77;;;10.88;;
22622;SDS011;11478;51.094;7.030;2023-03-01T01:57:58;22.58;;;11.75;;
22622;SDS011;11478;51.094;7.030;2023-03-01T02:00:29;18.40;;;10.90;;
22622;SDS011;11478;51.094;7.030;2023-03-01T02:03:06;20.63;;;11.45;;
22622;SDS011;11478;51.094;7.030;2023-03-01T02:08:28;19.75;;;11.55;;
22622;SDS011;11478;51.094;7.030;2023-03-01T02:10:57;17.25;;;11.25;;
22622;SDS011;11478;51.094;7.030;2023-03-01T02:13:25;19.17;;;11.98;;
22622;SDS011;11478;51.094;7.030;2023-03-01T02:15:55;19.60;;;12.00;;
22622;SDS011;11478;51.094;7.030;2023-03-01T02:18:21;18.10;;;11.73;;
22622;SDS011;11478;51.094;7.030;2023-03-01T02:23:15;17.75;;;11.30;;
22622;SDS011;11478;51.094;7.030;2023-03-01T02:26:01;19.00;;;11.93;;
22622;SDS011;11478;51.094;7.030;2023-03-01T02:28:54;18.40;;;10.80;;
22622;SDS011;11478;51.094;7.030;2023-03-01T02:31:20;18.42;;;11.10;;
22622;SDS011;11478;51.094;7.030;2023-03-01T02:34:06;17.83;;;11.10;;
22622;SDS011;11478;51.094;7.030;2023-03-01T02:36:37;17.25;;;10.75;;
22622;SDS011;11478;51.094;7.030;2023-03-01T02:39:05;18.90;;;12.32;;
22622;SDS011;11478;51.094;7.030;2023-03-01T02:41:40;18.33;;;10.73;;
22622;SDS011;11478;51.094;7.030;2023-03-01T02:44:13;17.77;;;10.95;;
22622;SDS011;11478;51.094;7.030;2023-03-01T02:46:46;19.25;;;11.23;;
22622;SDS011;11478;51.094;7.030;2023-03-01T02:49:23;18.85;;;10.52;;
22622;SDS011;11478;51.094;7.030;2023-03-01T02:55:09;17.98;;;10.95;;
22622;SDS011;11478;51.094;7.030;2023-03-01T02:57:40;17.92;;;10.82;;
22622;SDS011;11478;51.094;7.030;2023-03-01T03:00:12;17.92;;;10.70;;
22622;SDS011;11478;51.094;7.030;2023-03-01T03:02:50;19.40;;;12.05;;
22622;SDS011;11478;51.094;7.030;2023-03-01T03:05:20;16.45;;;10.95;;
22622;SDS011;11478;51.094;7.030;2023-03-01T03:07:48;17.67;;;11.13;;
22622;SDS011;11478;51.094;7.030;2023-03-01T03:10:20;20.45;;;11.23;;
22622;SDS011;11478;51.094;7.030;2023-03-01T03:16:26;16.25;;;10.55;;
22622;SDS011;11478;51.094;7.030;2023-03-01T03:18:54;17.20;;;11.38;;
22622;SDS011;11478;51.094;7.030;2023-03-01T03:21:31;18.02;;;10.68;;
22622;SDS011;11478;51.094;7.030;2023-03-01T03:23:57;16.85;;;10.82;;
22622;SDS011;11478;51.094;7.030;2023-03-01T03:26:23;16.83;;;11.00;;
22622;SDS011;11478;51.094;7.030;2023-03-01T03:28:49;18.05;;;10.80;;
22622;SDS011;11478;51.094;7.030;2023-03-01T03:31:15;17.40;;;10.60;;
22622;SDS011;11478;51.094;7.030;2023-03-01T03:33:44;17.15;;;10.68;;
22622;SDS011;11478;51.094;7.030;2023-03-01T03:36:14;16.10;;;10.60;;
22622;SDS011;11478;51.094;7.030;2023-03-01T03:38:55;17.00;;;11.20;;
22622;SDS011;11478;51.094;7.030;2023-03-01T03:41:21;16.92;;;10.80;;
22622;SDS011;11478;51.094;7.030;2023-03-01T03:43:47;17.08;;;11.02;;
22622;SDS011;11478;51.094;7.030;2023-03-01T03:46:14;16.65;;;10.80;;
22622;SDS011;11478;51.094;7.030;2023-03-01T03:48:41;18.27;;;11.00;;
22622;SDS011;11478;51.094;7.030;2023-03-01T03:51:13;17.00;;;11.13;;
22622;SDS011;11478;51.094;7.030;2023-03-01T03:53:41;19.88;;;11.40;;
22622;SDS011;11478;51.094;7.030;2023-03-01T03:56:08;18.65;;;10.73;;
22622;SDS011;11478;51.094;7.030;2023-03-01T03:58:34;18.42;;;11.10;;
22622;SDS011;11478;51.094;7.030;2023-03-01T04:01:17;20.40;;;11.88;;
22622;SDS011;11478;51.094;7.030;2023-03-01T04:03:43;18.00;;;11.70;;
22622;SDS011;11478;51.094;7.030;2023-03-01T04:06:17;18.55;;;11.40;;
22622;SDS011;11478;51.094;7.030;2023-03-01T04:08:43;16.02;;;11.13;;
22622;SDS011;11478;51.094;7.030;2023-03-01T04:11:09;18.60;;;11.07;;
22622;SDS011;11478;51.094;7.030;2023-03-01T04:13:54;16.15;;;11.05;;
22622;SDS011;11478;51.094;7.030;2023-03-01T04:16:22;18.35;;;11.77;;
22622;SDS011;11478;51.094;7.030;2023-03-01T04:19:03;19.58;;;11.68;;
22622;SDS011;11478;51.094;7.030;2023-03-01T04:21:31;18.70;;;11.68;;
22622;SDS011;11478;51.094;7.030;2023-03-01T04:23:59;19.38;;;11.95;;
22622;SDS011;11478;51.094;7.030;2023-03-01T04:26:25;16.52;;;10.95;;
22622;SDS011;11478;51.094;7.030;2023-03-01T04:28:53;18.13;;;11.55;;
22622;SDS011;11478;51.094;7.030;2023-03-01T04:31:19;18.58;;;11.27;;
22622;SDS011;11478;51.094;7.030;2023-03-01T04:36:21;17.90;;;11.50;;
22622;SDS011;11478;51.094;7.030;2023-03-01T04:38:55;19.02;;;11.93;;
22622;SDS011;11478;51.094;7.030;2023-03-01T04:41:22;21.25;;;12.75;;
22622;SDS011;11478;51.094;7.030;2023-03-01T04:43:49;18.30;;;11.73;;
22622;SDS011;11478;51.094;7.030;2023-03-01T04:46:16;20.30;;;13.30;;
22622;SDS011;11478;51.094;7.030;2023-03-01T04:48:51;25.23;;;14.30;;
22622;SDS011;11478;51.094;7.030;2023-03-01T04:51:17;24.83;;;13.93;;
22622;SDS011;11478;51.094;7.030;2023-03-01T04:53:52;20.88;;;13.40;;
22622;SDS011;11478;51.094;7.030;2023-03-01T04:56:18;24.67;;;13.70;;
22622;SDS011;11478;51.094;7.030;2023-03-01T05:01:37;18.52;;;11.40;;
22622;SDS011;11478;51.094;7.030;2023-03-01T05:04:03;22.05;;;13.98;;
22622;SDS011;11478;51.094;7.030;2023-03-01T05:06:30;21.58;;;13.93;;
22622;SDS011;11478;51.094;7.030;2023-03-01T05:08:58;24.45;;;15.05;;
22622;SDS011;11478;51.094;7.030;2023-03-01T05:11:28;22.27;;;15.02;;
22622;SDS011;11478;51.094;7.030;2023-03-01T05:13:58;22.35;;;15.18;;
22622;SDS011;11478;51.094;7.030;2023-03-01T05:16:25;26.23;;;15.80;;
22622;SDS011;11478;51.094;7.030;2023-03-01T05:18:50;23.15;;;14.90;;
22622;SDS011;11478;51.094;7.030;2023-03-01T05:21:17;23.67;;;14.95;;
22622;SDS011;11478;51.094;7.030;2023-03-01T05:23:43;22.88;;;14.38;;
22622;SDS011;11478;51.094;7.030;2023-03-01T05:26:10;25.05;;;15.40;;
22622;SDS011;11478;51.094;7.030;2023-03-01T05:28:38;25.70;;;15.38;;
22622;SDS011;11478;51.094;7.030;2023-03-01T05:31:11;23.77;;;14.80;;
22622;SDS011;11478;51.094;7.030;2023-03-01T05:33:37;23.67;;;15.52;;
22622;SDS011;11478;51.094;7.030;2023-03-01T05:38:35;27.27;;;15.02;;
22622;SDS011;11478;51.094;7.030;2023-03-01T05:41:12;24.58;;;14.90;;
22622;SDS011;11478;51.094;7.030;2023-03-01T05:43:39;25.73;;;15.20;;
22622;SDS011;11478;51.094;7.030;2023-03-01T05:46:15;25.00;;;15.07;;
22622;SDS011;11478;51.094;7.030;2023-03-01T05:48:40;25.60;;;15.73;;
22622;SDS011;11478;51.094;7.030;2023-03-01T05:51:06;23.13;;;15.27;;
22622;SDS011;11478;51.094;7.030;2023-03-01T05:53:32;27.88;;;15.73;;
22622;SDS011;11478;51.094;7.030;2023-03-01T05:56:02;24.50;;;15.25;;
22622;SDS011;11478;51.094;7.030;2023-03-01T05:58:28;25.25;;;15.82;;
22622;SDS011;11478;51.094;7.030;2023-03-01T06:03:30;21.63;;;14.75;;
22622;SDS011;11478;51.094;7.030;2023-03-01T06:09:02;26.67;;;16.73;;
22622;SDS011;11478;51.094;7.030;2023-03-01T06:11:29;24.73;;;15.82;;
22622;SDS011;11478;51.094;7.030;2023-03-01T06:13:55;24.67;;;15.85;;
22622;SDS011;11478;51.094;7.030;2023-03-01T06:16:21;26.63;;;16.45;;
22622;SDS011;11478;51.094;7.030;2023-03-01T06:18:47;29.05;;;16.90;;
22622;SDS011;11478;51.094;7.030;2023-03-01T06:21:14;26.35;;;16.40;;
22622;SDS011;11478;51.094;7.030;2023-03-01T06:23:40;26.08;;;16.67;;
22622;SDS011;11478;51.094;7.030;2023-03-01T06:26:08;31.65;;;18.15;;
22622;SDS011;11478;51.094;7.030;2023-03-01T06:28:34;27.95;;;17.45;;
22622;SDS011;11478;51.094;7.030;2023-03-01T06:31:01;30.27;;;17.35;;
22622;SDS011;11478;51.094;7.030;2023-03-01T06:33:26;29.15;;;18.95;;
22622;SDS011;11478;51.094;7.030;2023-03-01T06:35:56;31.08;;;18.05;;
22622;SDS011;11478;51.094;7.030;2023-03-01T06:38:22;31.48;;;18.58;;
22622;SDS011;11478;51.094;7.030;2023-03-01T06:40:53;29.10;;;18.85;;
22622;SDS011;11478;51.094;7.030;2023-03-01T06:43:21;33.08;;;18.25;;
22622;SDS011;11478;51.094;7.030;2023-03-01T06:45:53;43.42;;;21.15;;
22622;SDS011;11478;51.094;7.030;2023-03-01T06:48:19;31.48;;;20.70;;
22622;SDS011;11478;51.094;7.030;2023-03-01T06:50:45;32.97;;;19.42;;
22622;SDS011;11478;51.094;7.030;2023-03-01T06:53:11;32.83;;;19.60;;
22622;SDS011;11478;51.094;7.030;2023-03-01T06:55:36;31.65;;;19.00;;
22622;SDS011;11478;51.094;7.030;2023-03-01T06:58:03;28.65;;;17.65;;
22622;SDS011;11478;51.094;7.030;2023-03-01T07:03:17;31.30;;;19.38;;
22622;SDS011;11478;51.094;7.030;2023-03-01T07:05:44;41.08;;;23.65;;
22622;SDS011;11478;51.094;7.030;2023-03-01T07:08:09;28.98;;;19.92;;
22622;SDS011;11478;51.094;7.030;2023-03-01T07:10:37;65.40;;;28.90;;
22622;SDS011;11478;51.094;7.030;2023-03-01T07:13:03;41.88;;;23.10;;
22622;SDS011;11478;51.094;7.030;2023-03-01T07:15:29;39.92;;;23.70;;
22622;SDS011;11478;51.094;7.030;2023-03-01T07:18:07;36.67;;;22.83;;
22622;SDS011;11478;51.094;7.030;2023-03-01T07:20:33;33.38;;;19.35;;
22622;SDS011;11478;51.094;7.030;2023-03-01T07:22:59;26.55;;;17.95;;
22622;SDS011;11478;51.094;7.030;2023-03-01T07:25:25;27.20;;;17.88;;
22622;SDS011;11478;51.094;7.030;2023-03-01T07:30:38;29.77;;;17.27;;
22622;SDS011;11478;51.094;7.030;2023-03-01T07:33:06;25.42;;;18.20;;
22622;SDS011;11478;51.094;7.030;2023-03-01T07:35:33;25.42;;;17.25;;
22622;SDS011;11478;51.094;7.030;2023-03-01T07:38:02;28.02;;;17.08;;
22622;SDS011;11478;51.094;7.030;2023-03-01T07:40:28;25.33;;;15.55;;
22622;SDS011;11478;51.094;7.030;2023-03-01T07:42:57;23.48;;;15.35;;
22622;SDS011;11478;51.094;7.030;2023-03-01T07:45:24;23.48;;;15.82;;
22622;SDS011;11478;51.094;7.030;2023-03-01T07:47:51;25.02;;;16.60;;
22622;SDS011;11478;51.094;7.030;2023-03-01T07:50:17;20.75;;;14.55;;
22622;SDS011;11478;51.094;7.030;2023-03-01T07:52:49;21.00;;;14.15;;
22622;SDS011;11478;51.094;7.030;2023-03-01T07:55:15;18.35;;;12.68;;
22622;SDS011;11478;51.094;7.030;2023-03-01T07:57:42;20.48;;;13.57;;
22622;SDS011;11478;51.094;7.030;2023-03-01T08:00:10;21.60;;;13.10;;
22622;SDS011;11478;51.094;7.030;2023-03-01T08:02:37;21.00;;;13.05;;
22622;SDS011;11478;51.094;7.030;2023-03-01T08:05:03;19.98;;;13.00;;
22622;SDS011;11478;51.094;7.030;2023-03-01T08:07:29;19.10;;;12.70;;
22622;SDS011;11478;51.094;7.030;2023-03-01T08:09:58;20.35;;;12.57;;
22622;SDS011;11478;51.094;7.030;2023-03-01T08:12:24;19.58;;;12.07;;
22622;SDS011;11478;51.094;7.030;2023-03-01T08:14:49;20.95;;;12.90;;
22622;SDS011;11478;51.094;7.030;2023-03-01T08:17:16;20.27;;;11.70;;
22622;SDS011;11478;51.094;7.030;2023-03-01T08:19:46;17.70;;;12.02;;
22622;SDS011;11478;51.094;7.030;2023-03-01T08:22:12;16.80;;;11.65;;
22622;SDS011;11478;51.094;7.030;2023-03-01T08:24:38;18.92;;;11.75;;
22622;SDS011;11478;51.094;7.030;2023-03-01T08:27:03;18.52;;;11.52;;
22622;SDS011;11478;51.094;7.030;2023-03-01T08:29:33;14.40;;;11.10;;
22622;SDS011;11478;51.094;7.030;2023-03-01T08:31:59;16.83;;;10.95;;
22622;SDS011;11478;51.094;7.030;2023-03-01T08:34:36;18.70;;;11.93;;
22622;SDS011;11478;51.094;7.030;2023-03-01T08:37:02;16.17;;;10.90;;
22622;SDS011;11478;51.094;7.030;2023-03-01T08:39:29;15.35;;;10.82;;
22622;SDS011;11478;51.094;7.030;2023-03-01T08:41:55;15.40;;;11.32;;
22622;SDS011;11478;51.094;7.030;2023-03-01T08:44:21;15.35;;;10.85;;
22622;SDS011;11478;51.094;7.030;2023-03-01T08:46:48;15.43;;;10.40;;
22622;SDS011;11478;51.094;7.030;2023-03-01T08:49:38;14.40;;;10.40;;
22622;SDS011;11478;51.094;7.030;2023-03-01T08:52:04;18.05;;;10.20;;
22622;SDS011;11478;51.094;7.030;2023-03-01T08:54:30;14.75;;;10.27;;
22622;SDS011;11478;51.094;7.030;2023-03-01T08:57:02;16.77;;;10.80;;
22622;SDS011;11478;51.094;7.030;2023-03-01T08:59:29;15.15;;;10.45;;
22622;SDS011;11478;51.094;7.030;2023-03-01T09:02:17;14.95;;;9.70;;
22622;SDS011;11478;51.094;7.030;2023-03-01T09:04:57;13.57;;;9.73;;
22622;SDS011;11478;51.094;7.030;2023-03-01T09:07:37;13.18;;;9.30;;
22622;SDS011;11478;51.094;7.030;2023-03-01T09:13:08;13.95;;;9.32;;
22622;SDS011;11478;51.094;7.030;2023-03-01T09:15:36;13.75;;;9.80;;
22622;SDS011;11478;51.094;7.030;2023-03-01T09:18:03;13.90;;;9.50;;
22622;SDS011;11478;51.094;7.030;2023-03-01T09:20:31;12.40;;;9.38;;
22622;SDS011;11478;51.094;7.030;2023-03-01T09:22:58;13.13;;;8.75;;
22622;SDS011;11478;51.094;7.030;2023-03-01T09:25:25;12.90;;;8.95;;
22622;SDS011;11478;51.094;7.030;2023-03-01T09:27:51;16.98;;;8.98;;
22622;SDS011;11478;51.094;7.030;2023-03-01T09:32:49;11.25;;;9.15;;
22622;SDS011;11478;51.094;7.030;2023-03-01T09:37:45;12.80;;;9.07;;
22622;SDS011;11478;51.094;7.030;2023-03-01T09:43:48;14.57;;;9.77;;
22622;SDS011;11478;51.094;7.030;2023-03-01T09:46:22;15.25;;;10.10;;
22622;SDS011;11478;51.094;7.030;2023-03-01T09:53:56;13.68;;;8.75;;
22622;SDS011;11478;51.094;7.030;2023-03-01T10:01:44;13.40;;;8.60;;
22622;SDS011;11478;51.094;7.030;2023-03-01T10:10:31;14.18;;;8.60;;
22622;SDS011;11478;51.094;7.030;2023-03-01T10:13:04;11.70;;;8.68;;
22622;SDS011;11478;51.094;7.030;2023-03-01T10:15:39;13.02;;;8.07;;
22622;SDS011;11478;51.094;7.030;2023-03-01T10:18:14;12.00;;;8.77;;
22622;SDS011;11478;51.094;7.030;2023-03-01T10:20:59;12.80;;;8.80;;
22622;SDS011;11478;51.094;7.030;2023-03-01T10:23:27;13.82;;;8.85;;
22622;SDS011;11478;51.094;7.030;2023-03-01T10:31:02;14.35;;;9.48;;
22622;SDS011;11478;51.094;7.030;2023-03-01T10:33:32;13.95;;;9.20;;
22622;SDS011;11478;51.094;7.030;2023-03-01T10:36:05;13.00;;;9.10;;
22622;SDS011;11478;51.094;7.030;2023-03-01T10:38:46;13.75;;;9.02;;
22622;SDS011;11478;51.094;7.030;2023-03-01T10:41:13;13.55;;;9.10;;
22622;SDS011;11478;51.094;7.030;2023-03-01T10:51:42;13.95;;;9.45;;
22622;SDS011;11478;51.094;7.030;2023-03-01T10:57:36;13.63;;;9.65;;
22622;SDS011;11478;51.094;7.030;2023-03-01T11:05:24;12.25;;;9.23;;
22622;SDS011;11478;51.094;7.030;2023-03-01T11:07:57;13.88;;;9.55;;
22622;SDS011;11478;51.094;7.030;2023-03-01T11:13:16;14.77;;;9.25;;
22622;SDS011;11478;51.094;7.030;2023-03-01T11:15:44;17.63;;;9.15;;
22622;SDS011;11478;51.094;7.030;2023-03-01T11:18:24;15.00;;;10.35;;
22622;SDS011;11478;51.094;7.030;2023-03-01T11:20:53;14.93;;;9.88;;
22622;SDS011;11478;51.094;7.030;2023-03-01T11:23:21;15.93;;;9.82;;
22622;SDS011;11478;51.094;7.030;2023-03-01T11:26:05;15.52;;;9.60;;
22622;SDS011;11478;51.094;7.030;2023-03-01T11:28:36;13.25;;;9.10;;
22622;SDS011;11478;51.094;7.030;2023-03-01T11:31:06;12.73;;;9.50;;
22622;SDS011;11478;51.094;7.030;2023-03-01T11:33:44;14.32;;;9.20;;
22622;SDS011;11478;51.094;7.030;2023-03-01T11:42:17;14.38;;;10.00;;
22622;SDS011;11478;51.094;7.030;2023-03-01T11:44:54;12.70;;;8.80;;
22622;SDS011;11478;51.094;7.030;2023-03-01T11:47:37;12.35;;;9.18;;
22622;SDS011;11478;51.094;7.030;2023-03-01T11:50:32;14.18;;;9.65;;
22622;SDS011;11478;51.094;7.030;2023-03-01T11:58:17;15.55;;;9.65;;
22622;SDS011;11478;51.094;7.030;2023-03-01T12:00:55;14.63;;;10.20;;
22622;SDS011;11478;51.094;7.030;2023-03-01T12:11:56;13.70;;;9.40;;
22622;SDS011;11478;51.094;7.030;2023-03-01T12:37:54;11.10;;;8.32;;
22622;SDS011;11478;51.094;7.030;2023-03-01T12:51:33;12.63;;;8.18;;
22622;SDS011;11478;51.094;7.030;2023-03-01T12:54:14;13.43;;;7.95;;
22622;SDS011;11478;51.094;7.030;2023-03-01T12:56:44;11.48;;;7.78;;
22622;SDS011;11478;51.094;7.030;2023-03-01T13:07:35;10.55;;;7.18;;
22622;SDS011;11478;51.094;7.030;2023-03-01T13:13:11;10.85;;;7.22;;
22622;SDS011;11478;51.094;7.030;2023-03-01T13:15:38;10.23;;;7.40;;
22622;SDS011;11478;51.094;7.030;2023-03-01T13:33:56;12.00;;;8.07;;
22622;SDS011;11478;51.094;7.030;2023-03-01T13:39:03;10.48;;;7.80;;
22622;SDS011;11478;51.094;7.030;2023-03-01T13:41:54;11.77;;;7.90;;
22622;SDS011;11478;51.094;7.030;2023-03-01T13:44:30;11.05;;;7.78;;
22622;SDS011;11478;51.094;7.030;2023-03-01T13:49:37;14.05;;;8.38;;
22622;SDS011;11478;51.094;7.030;2023-03-01T13:57:47;12.45;;;8.10;;
22622;SDS011;11478;51.094;7.030;2023-03-01T14:03:00;13.70;;;8.07;;
22622;SDS011;11478;51.094;7.030;2023-03-01T14:05:27;14.80;;;8.13;;
22622;SDS011;11478;51.094;7.030;2023-03-01T14:07:55;13.10;;;8.43;;
22622;SDS011;11478;51.094;7.030;2023-03-01T14:10:22;13.18;;;8.52;;
22622;SDS011;11478;51.094;7.030;2023-03-01T14:13:04;11.05;;;8.13;;
22622;SDS011;11478;51.094;7.030;2023-03-01T14:21:13;13.00;;;8.52;;
22622;SDS011;11478;51.094;7.030;2023-03-01T14:23:41;16.60;;;8.90;;
22622;SDS011;11478;51.094;7.030;2023-03-01T14:26:07;14.75;;;8.75;;
22622;SDS011;11478;51.094;7.030;2023-03-01T14:28:34;14.27;;;9.32;;
22622;SDS011;11478;51.094;7.030;2023-03-01T14:31:21;15.55;;;8.73;;
22622;SDS011;11478;51.094;7.030;2023-03-01T14:34:00;13.55;;;8.05;;
22622;SDS011;11478;51.094;7.030;2023-03-01T14:36:28;13.80;;;8.38;;
22622;SDS011;11478;51.094;7.030;2023-03-01T14:38:57;15.00;;;8.80;;
22622;SDS011;11478;51.094;7.030;2023-03-01T14:41:39;14.75;;;8.70;;
22622;SDS011;11478;51.094;7.030;2023-03-01T14:44:06;13.27;;;9.15;;
22622;SDS011;11478;51.094;7.030;2023-03-01T14:46:41;14.15;;;8.80;;
22622;SDS011;11478;51.094;7.030;2023-03-01T14:49:12;13.35;;;8.48;;
22622;SDS011;11478;51.094;7.030;2023-03-01T14:51:42;14.05;;;8.48;;
22622;SDS011;11478;51.094;7.030;2023-03-01T14:54:21;12.57;;;8.25;;
22622;SDS011;11478;51.094;7.030;2023-03-01T14:56:51;12.40;;;8.18;;
22622;SDS011;11478;51.094;7.030;2023-03-01T14:59:22;12.13;;;8.18;;
22622;SDS011;11478;51.094;7.030;2023-03-01T15:01:49;14.10;;;8.00;;
22622;SDS011;11478;51.094;7.030;2023-03-01T15:04:18;17.13;;;8.27;;
22622;SDS011;11478;51.094;7.030;2023-03-01T15:06:46;12.68;;;7.93;;
22622;SDS011;11478;51.094;7.030;2023-03-01T15:09:16;14.95;;;8.75;;
22622;SDS011;11478;51.094;7.030;2023-03-01T15:11:45;12.52;;;8.27;;
22622;SDS011;11478;51.094;7.030;2023-03-01T15:22:28;10.88;;;7.18;;
22622;SDS011;11478;51.094;7.030;2023-03-01T15:24:55;11.82;;;7.60;;
22622;SDS011;11478;51.094;7.030;2023-03-01T15:27:25;12.25;;;7.10;;
22622;SDS011;11478;51.094;7.030;2023-03-01T15:29:54;10.05;;;7.30;;
22622;SDS011;11478;51.094;7.030;2023-03-01T15:32:27;9.43;;;6.65;;
22622;SDS011;11478;51.094;7.030;2023-03-01T15:38:26;8.80;;;6.50;;
22622;SDS011;11478;51.094;7.030;2023-03-01T15:40:55;10.05;;;6.80;;
22622;SDS011;11478;51.094;7.030;2023-03-01T15:43:40;12.98;;;6.50;;
22622;SDS011;11478;51.094;7.030;2023-03-01T15:49:42;9.82;;;6.25;;
22622;SDS011;11478;51.094;7.030;2023-03-01T15:52:29;9.65;;;6.22;;
22622;SDS011;11478;51.094;7.030;2023-03-01T15:55:24;10.68;;;6.40;;
22622;SDS011;11478;51.094;7.030;2023-03-01T15:58:06;8.95;;;6.30;;
22622;SDS011;11478;51.094;7.030;2023-03-01T16:00:51;8.50;;;6.07;;
22622;SDS011;11478;51.094;7.030;2023-03-01T16:03:49;8.43;;;6.25;;
22622;SDS011;11478;51.094;7.030;2023-03-01T16:06:19;11.20;;;6.67;;
22622;SDS011;11478;51.094;7.030;2023-03-01T16:08:50;9.18;;;6.78;;
22622;SDS011;11478;51.094;7.030;2023-03-01T16:11:22;11.20;;;6.60;;
22622;SDS011;11478;51.094;7.030;2023-03-01T16:13:52;9.75;;;6.70;;
22622;SDS011;11478;51.094;7.030;2023-03-01T16:16:18;10.13;;;7.40;;
22622;SDS011;11478;51.094;7.030;2023-03-01T16:21:21;15.60;;;8.80;;
22622;SDS011;11478;51.094;7.030;2023-03-01T16:26:19;12.60;;;8.70;;
22622;SDS011;11478;51.094;7.030;2023-03-01T16:28:46;10.25;;;7.38;;
22622;SDS011;11478;51.094;7.030;2023-03-01T16:31:13;11.18;;;7.45;;
22622;SDS011;11478;51.094;7.030;2023-03-01T16:36:15;9.52;;;6.85;;
22622;SDS011;11478;51.094;7.030;2023-03-01T16:38:44;11.50;;;6.35;;
22622;SDS011;11478;51.094;7.030;2023-03-01T16:41:14;13.43;;;7.20;;
22622;SDS011;11478;51.094;7.030;2023-03-01T16:43:42;10.82;;;6.82;;
22622;SDS011;11478;51.094;7.030;2023-03-01T16:46:21;9.85;;;6.75;;
22622;SDS011;11478;51.094;7.030;2023-03-01T16:48:49;10.38;;;6.75;;
22622;SDS011;11478;51.094;7.030;2023-03-01T16:51:16;12.20;;;6.43;;
22622;SDS011;11478;51.094;7.030;2023-03-01T16:53:44;9.02;;;6.43;;
22622;SDS011;11478;51.094;7.030;2023-03-01T16:56:10;10.35;;;6.50;;
22622;SDS011;11478;51.094;7.030;2023-03-01T16:58:38;10.25;;;6.30;;
22622;SDS011;11478;51.094;7.030;2023-03-01T17:01:05;12.60;;;6.38;;
22622;SDS011;11478;51.094;7.030;2023-03-01T17:03:34;11.52;;;6.93;;
22622;SDS011;11478;51.094;7.030;2023-03-01T17:06:07;11.68;;;6.68;;
22622;SDS011;11478;51.094;7.030;2023-03-01T17:08:37;11.18;;;6.90;;
22622;SDS011;11478;51.094;7.030;2023-03-01T17:11:12;9.75;;;6.07;;
22622;SDS011;11478;51.094;7.030;2023-03-01T17:13:39;11.57;;;6.80;;
22622;SDS011;11478;51.094;7.030;2023-03-01T17:18:51;11.23;;;6.78;;
22622;SDS011;11478;51.094;7.030;2023-03-01T17:21:23;10.38;;;7.35;;
22622;SDS011;11478;51.094;7.030;2023-03-01T17:23:54;11.80;;;6.22;;
22622;SDS011;11478;51.094;7.030;2023-03-01T17:26:23;13.95;;;6.90;;
22622;SDS011;11478;51.094;7.030;2023-03-01T17:28:49;11.50;;;7.25;;
22622;SDS011;11478;51.094;7.030;2023-03-01T17:31:22;12.23;;;7.03;;
22622;SDS011;11478;51.094;7.030;2023-03-01T17:33:49;11.65;;;7.38;;
22622;SDS011;11478;51.094;7.030;2023-03-01T17:39:09;11.40;;;7.40;;
22622;SDS011;11478;51.094;7.030;2023-03-01T17:41:35;16.92;;;8.75;;
22622;SDS011;11478;51.094;7.030;2023-03-01T17:44:01;12.48;;;8.00;;
22622;SDS011;11478;51.094;7.030;2023-03-01T17:46:27;15.20;;;9.30;;
22622;SDS011;11478;51.094;7.030;2023-03-01T17:48:53;14.27;;;8.57;;
22622;SDS011;11478;51.094;7.030;2023-03-01T17:51:33;13.90;;;8.60;;
22622;SDS011;11478;51.094;7.030;2023-03-01T17:53:59;10.73;;;7.43;;
22622;SDS011;11478;51.094;7.030;2023-03-01T17:56:25;17.15;;;8.73;;
22622;SDS011;11478;51.094;7.030;2023-03-01T17:58:51;15.85;;;8.95;;
22622;SDS011;11478;51.094;7.030;2023-03-01T18:04:36;16.65;;;9.48;;
22622;SDS011;11478;51.094;7.030;2023-03-01T18:07:05;17.13;;;9.48;;
22622;SDS011;11478;51.094;7.030;2023-03-01T18:09:30;15.15;;;9.18;;
22622;SDS011;11478;51.094;7.030;2023-03-01T18:11:57;14.73;;;9.23;;
22622;SDS011;11478;51.094;7.030;2023-03-01T18:14:24;16.52;;;9.90;;
22622;SDS011;11478;51.094;7.030;2023-03-01T18:16:54;19.02;;;11.15;;
22622;SDS011;11478;51.094;7.030;2023-03-01T18:19:19;16.63;;;10.38;;
22622;SDS011;11478;51.094;7.030;2023-03-01T18:21:45;16.45;;;9.85;;
22622;SDS011;11478;51.094;7.030;2023-03-01T18:24:11;14.65;;;9.77;;
22622;SDS011;11478;51.094;7.030;2023-03-01T18:26:37;16.67;;;9.60;;
22622;SDS011;11478;51.094;7.030;2023-03-01T18:29:03;15.77;;;9.63;;
22622;SDS011;11478;51.094;7.030;2023-03-01T18:31:28;15.13;;;9.75;;
22622;SDS011;11478;51.094;7.030;2023-03-01T18:33:57;14.77;;;8.73;;
22622;SDS011;11478;51.094;7.030;2023-03-01T18:36:29;15.02;;;7.68;;
22622;SDS011;11478;51.094;7.030;2023-03-01T18:38:57;19.83;;;9.05;;
22622;SDS011;11478;51.094;7.030;2023-03-01T18:41:26;16.23;;;8.02;;
22622;SDS011;11478;51.094;7.030;2023-03-01T18:43:53;13.73;;;9.30;;
22622;SDS011;11478;51.094;7.030;2023-03-01T18:46:21;14.70;;;9.55;;